Time;durP1;ratioP1;P1;durP2;ratioP2;P2;SDS_P1;SDS_P2;PMS_P1;PMS_P2;Temp;Humidity;BMP_temperature;BMP_pressure;BME280_temperature;BME280_humidity;BME280_pressure;Samples;Min_cycle;Max_cycle;Signal;HPM_P1;HPM_P2
2022/01/24 00:00:55;;;;;;;37.58;18.77;;;-1.50;97.30;;;;;;5038023;28;20037;-67
2022/01/24 00:03:21;;;;;;;43.28;22.13;;;-1.50;97.80;;;;;;5036104;28;20119;-68
2022/01/24 00:05:47;;;;;;;39.13;20.10;;;-1.60;97.90;;;;;;5040012;28;20104;-68
2022/01/24 00:08:12;;;;;;;35.58;19.38;;;-1.80;98.00;;;;;;5042487;28;20433;-69
2022/01/24 00:10:40;;;;;;;38.85;21.02;;;-1.90;97.50;;;;;;5046610;28;20026;-67
2022/01/24 00:16:02;;;;;;;35.88;19.20;;;-2.00;96.60;;;;;;5041253;28;20141;-68
2022/01/24 00:26:41;;;;;;;40.50;21.55;;;-2.00;96.60;;;;;;5035305;28;20040;-68
2022/01/24 00:26:47;;;;;;;37.75;21.88;;;-2.00;96.30;;;;;;5042738;28;20091;-68
2022/01/24 00:29:19;;;;;;;45.30;23.65;;;-2.10;96.50;;;;;;5035488;28;20433;-67
2022/01/24 00:31:46;;;;;;;47.70;25.92;;;-2.10;96.60;;;;;;5041443;28;20123;-68
2022/01/24 00:34:14;;;;;;;44.63;23.30;;;-2.10;95.10;;;;;;5040170;28;20539;-68
2022/01/24 00:36:40;;;;;;;37.03;19.98;;;-2.00;95.80;;;;;;5037875;28;20025;-68
2022/01/24 00:39:07;;;;;;;34.88;19.83;;;-2.00;95.60;;;;;;5039126;28;20027;-68
2022/01/24 00:41:48;;;;;;;38.80;20.30;;;-2.00;95.40;;;;;;5041713;28;20601;-68
2022/01/24 00:46:51;;;;;;;35.15;18.55;;;-1.60;95.40;;;;;;5036394;28;20373;-68
2022/01/24 00:54:47;;;;;;;34.83;18.27;;;-1.30;94.30;;;;;;5037608;28;20095;-68
2022/01/24 00:57:13;;;;;;;30.33;17.88;;;-1.10;95.00;;;;;;5043407;28;20043;-68
2022/01/24 00:59:40;;;;;;;30.50;17.20;;;-1.00;95.80;;;;;;5036409;28;20492;-69
2022/01/24 01:02:06;;;;;;;30.02;16.63;;;-0.80;96.30;;;;;;5037283;28;20049;-68
2022/01/24 01:18:18;;;;;;;24.88;14.85;;;-0.50;98.00;;;;;;5035683;28;20041;-68
2022/01/24 01:23:50;;;;;;;31.17;16.70;;;-0.50;98.00;;;;;;5040698;28;20107;-66
2022/01/24 01:28:49;;;;;;;23.10;14.07;;;-0.60;98.00;;;;;;5037954;28;20675;-68
2022/01/24 01:55:46;;;;;;;29.60;16.63;;;-0.90;98.00;;;;;;5047135;28;20102;-67
2022/01/24 01:58:23;;;;;;;26.05;15.27;;;-0.90;98.00;;;;;;5042303;28;20025;-67
2022/01/24 02:00:54;;;;;;;23.02;13.38;;;-0.80;98.00;;;;;;5040906;28;20029;-67
2022/01/24 02:03:22;;;;;;;23.52;13.13;;;-0.70;98.00;;;;;;5040597;28;20029;-66
2022/01/24 02:05:53;;;;;;;24.25;13.82;;;-0.70;98.00;;;;;;5055679;28;20031;-68
2022/01/24 02:08:22;;;;;;;26.30;15.52;;;-0.70;98.00;;;;;;5041596;28;20128;-68
2022/01/24 02:10:48;;;;;;;28.15;14.95;;;-0.70;98.00;;;;;;5041902;28;20040;-68
2022/01/24 02:13:14;;;;;;;23.27;14.27;;;-0.70;98.00;;;;;;5039951;28;20025;-68
2022/01/24 02:15:53;;;;;;;24.65;14.20;;;-0.60;98.00;;;;;;5044186;28;20025;-68
2022/01/24 02:18:33;;;;;;;29.05;15.65;;;-0.70;98.00;;;;;;5037048;28;20115;-66
2022/01/24 02:26:04;;;;;;;24.30;14.60;;;-0.70;98.00;;;;;;5039395;28;20559;-67
2022/01/24 02:28:42;;;;;;;26.42;15.40;;;-0.60;98.00;;;;;;5042317;28;20115;-67
2022/01/24 02:33:52;;;;;;;27.00;15.52;;;-0.60;98.00;;;;;;5038811;28;21432;-67
2022/01/24 02:36:24;;;;;;;23.65;15.00;;;-0.60;98.00;;;;;;5054172;28;20121;-67
2022/01/24 02:39:27;;;;;;;26.50;15.02;;;-0.60;98.00;;;;;;5041280;28;20021;-68
2022/01/24 02:50:04;;;;;;;25.48;14.57;;;-0.90;98.00;;;;;;5040877;28;20048;-68
2022/01/24 02:52:30;;;;;;;26.20;14.80;;;-1.00;98.00;;;;;;5039822;28;20040;-68
2022/01/24 02:54:56;;;;;;;27.15;15.43;;;-1.20;98.00;;;;;;5039995;28;20348;-68
2022/01/24 02:57:22;;;;;;;25.33;15.13;;;-1.30;98.00;;;;;;5044116;28;20044;-67
2022/01/24 02:59:48;;;;;;;23.23;14.30;;;-1.40;98.00;;;;;;5037402;28;20195;-68
2022/01/24 03:02:14;;;;;;;30.10;17.63;;;-1.40;98.00;;;;;;5037496;28;20490;-68
2022/01/24 03:04:39;;;;;;;27.45;15.15;;;-1.50;98.00;;;;;;5037374;28;20021;-68
2022/01/24 03:07:07;;;;;;;28.63;16.35;;;-1.50;98.00;;;;;;5045644;28;20338;-67
2022/01/24 03:09:33;;;;;;;28.08;16.20;;;-1.50;98.00;;;;;;5039441;28;20029;-67
2022/01/24 03:12:11;;;;;;;27.23;16.27;;;-1.70;98.00;;;;;;5041436;28;20036;-67
2022/01/24 03:14:37;;;;;;;34.40;18.08;;;-1.80;97.30;;;;;;5039672;28;20414;-67
2022/01/24 03:17:06;;;;;;;30.23;17.08;;;-1.80;97.30;;;;;;5036314;28;20322;-68
2022/01/24 03:19:33;;;;;;;28.90;16.58;;;-1.80;97.00;;;;;;5043774;28;20025;-68
2022/01/24 03:21:58;;;;;;;32.25;17.75;;;-1.80;97.10;;;;;;5041956;28;20029;-68
2022/01/24 03:24:24;;;;;;;36.55;20.00;;;-1.90;97.00;;;;;;5041794;28;20334;-67
2022/01/24 03:26:50;;;;;;;26.80;16.02;;;-2.00;97.10;;;;;;5040363;28;20029;-67
2022/01/24 03:29:16;;;;;;;33.35;18.65;;;-2.00;96.40;;;;;;5040576;28;20030;-68
2022/01/24 03:31:43;;;;;;;26.17;16.13;;;-2.00;95.90;;;;;;5035369;28;20152;-67
2022/01/24 03:34:09;;;;;;;27.50;16.15;;;-1.90;95.50;;;;;;5035645;28;20346;-67
2022/01/24 03:36:35;;;;;;;31.58;17.35;;;-1.80;95.90;;;;;;5038002;28;20549;-67
2022/01/24 03:39:02;;;;;;;28.30;16.85;;;-1.90;96.40;;;;;;5040566;28;20163;-67
2022/01/24 03:41:27;;;;;;;29.55;15.68;;;-2.00;96.60;;;;;;5039188;28;20071;-67
2022/01/24 03:44:00;;;;;;;32.35;16.42;;;-2.00;95.60;;;;;;5040185;28;20067;-68
2022/01/24 03:46:28;;;;;;;34.72;19.23;;;-2.10;96.60;;;;;;5043260;28;20078;-67
2022/01/24 03:49:06;;;;;;;26.88;15.35;;;-2.20;96.60;;;;;;5042230;28;20025;-67
2022/01/24 03:51:32;;;;;;;29.23;17.35;;;-2.30;95.10;;;;;;5038334;28;20030;-67
2022/01/24 03:53:58;;;;;;;29.67;16.48;;;-2.10;95.10;;;;;;5053106;28;20384;-68
2022/01/24 03:56:23;;;;;;;29.80;16.98;;;-2.00;94.90;;;;;;5039066;28;20053;-68
2022/01/24 03:58:49;;;;;;;28.65;17.38;;;-1.90;94.30;;;;;;5041555;28;20021;-68
2022/01/24 04:01:15;;;;;;;27.27;15.38;;;-1.80;94.90;;;;;;5039933;28;20090;-67
2022/01/24 04:03:42;;;;;;;30.02;15.88;;;-1.80;94.70;;;;;;5036191;28;20648;-67
2022/01/24 04:06:08;;;;;;;31.15;16.88;;;-1.80;95.10;;;;;;5037794;28;20450;-67
2022/01/24 04:08:34;;;;;;;32.13;16.25;;;-1.90;95.20;;;;;;5035866;28;20411;-66
2022/01/24 04:11:09;;;;;;;30.05;16.85;;;-1.90;94.80;;;;;;5038838;28;20028;-66
2022/01/24 04:13:39;;;;;;;33.03;17.27;;;-1.70;93.70;;;;;;5043012;28;20033;-67
2022/01/24 04:21:32;;;;;;;39.58;21.50;;;-1.80;95.30;;;;;;5035924;28;20779;-68
2022/01/24 04:24:14;;;;;;;34.92;19.63;;;-1.70;94.20;;;;;;5035823;28;20647;-68
2022/01/24 04:26:40;;;;;;;33.28;17.85;;;-1.70;95.10;;;;;;5042086;28;20401;-67
2022/01/24 04:29:07;;;;;;;34.75;19.10;;;-1.60;95.30;;;;;;5039607;28;20045;-68
2022/01/24 04:31:36;;;;;;;42.00;22.30;;;-1.70;96.10;;;;;;5041330;28;20100;-67
2022/01/24 04:34:03;;;;;;;153.32;71.50;;;-1.80;96.00;;;;;;5042005;28;20108;-67
2022/01/24 04:36:29;;;;;;;40.40;22.63;;;-2.00;96.50;;;;;;5037658;28;20037;-67
2022/01/24 04:38:58;;;;;;;164.38;71.03;;;-2.10;96.10;;;;;;5036606;28;20333;-67
2022/01/24 04:41:31;;;;;;;35.83;20.63;;;-2.20;96.20;;;;;;5039436;28;20032;-68
2022/01/24 04:56:31;;;;;;;38.28;20.30;;;-2.20;94.10;;;;;;5043159;28;20021;-65
2022/01/24 04:58:57;;;;;;;42.95;24.30;;;-2.10;94.20;;;;;;5041437;28;20026;-65
2022/01/24 05:01:23;;;;;;;60.92;32.58;;;-2.00;92.90;;;;;;5043587;28;20061;-67
2022/01/24 05:03:48;;;;;;;55.58;29.17;;;-2.00;95.40;;;;;;5042890;28;20017;-67
2022/01/24 05:06:14;;;;;;;38.33;22.90;;;-2.10;95.40;;;;;;5038001;28;20025;-67
2022/01/24 05:08:40;;;;;;;33.70;20.85;;;-2.10;94.20;;;;;;5042512;28;20029;-67
2022/01/24 05:11:10;;;;;;;86.88;35.83;;;-2.00;94.20;;;;;;5040834;28;20326;-67
2022/01/24 05:24:20;;;;;;;52.25;27.92;;;-2.10;95.40;;;;;;5041918;28;20041;-67
2022/01/24 05:26:45;;;;;;;56.85;28.75;;;-2.30;95.40;;;;;;5043920;28;20040;-67
2022/01/24 05:29:11;;;;;;;39.60;23.00;;;-2.40;96.00;;;;;;5045116;28;20048;-67
2022/01/24 05:31:37;;;;;;;40.03;23.13;;;-2.60;94.70;;;;;;5041856;28;20061;-66
2022/01/24 05:34:02;;;;;;;52.10;27.92;;;-2.50;93.90;;;;;;5037607;28;20113;-66
2022/01/24 05:36:28;;;;;;;44.42;25.25;;;-2.50;94.70;;;;;;5044704;28;20041;-66
2022/01/24 05:38:57;;;;;;;42.45;24.38;;;-2.50;95.20;;;;;;5043159;28;20140;-66
2022/01/24 05:41:23;;;;;;;43.33;24.98;;;-2.60;94.70;;;;;;5042651;28;20037;-67
2022/01/24 05:43:49;;;;;;;43.42;25.70;;;-2.50;94.10;;;;;;5043125;28;20025;-67
2022/01/24 05:46:15;;;;;;;49.17;26.92;;;-2.50;94.40;;;;;;5047429;28;20029;-67
2022/01/24 05:48:40;;;;;;;40.42;22.98;;;-2.50;94.30;;;;;;5043906;28;20029;-67
2022/01/24 05:51:06;;;;;;;41.58;25.15;;;-2.50;93.90;;;;;;5041945;28;20096;-66
2022/01/24 05:53:32;;;;;;;95.65;44.75;;;-2.30;92.60;;;;;;5046252;28;20033;-66
2022/01/24 05:55:59;;;;;;;74.53;37.60;;;-2.10;92.30;;;;;;5039676;28;20437;-67
2022/01/24 05:58:24;;;;;;;72.20;37.45;;;-2.10;93.50;;;;;;5045460;28;20112;-68
2022/01/24 06:00:50;;;;;;;76.60;39.08;;;-2.10;93.60;;;;;;5044366;28;20124;-67
2022/01/24 06:03:17;;;;;;;52.65;28.95;;;-2.00;92.70;;;;;;5043375;28;20437;-67
2022/01/24 06:05:42;;;;;;;57.00;30.52;;;-1.90;92.30;;;;;;5045538;28;20028;-66
2022/01/24 06:08:08;;;;;;;40.72;24.17;;;-1.80;93.30;;;;;;5042271;28;20086;-67
2022/01/24 06:10:37;;;;;;;42.53;24.85;;;-1.90;93.40;;;;;;5042368;28;20430;-67
2022/01/24 06:13:02;;;;;;;39.58;22.88;;;-1.90;93.20;;;;;;5039595;28;20025;-67
2022/01/24 06:15:28;;;;;;;105.97;52.67;;;-1.80;93.20;;;;;;5041615;28;20029;-66
2022/01/24 06:17:54;;;;;;;36.50;23.30;;;-1.80;94.20;;;;;;5043192;28;20029;-67
2022/01/24 06:20:19;;;;;;;33.83;21.63;;;-1.80;93.20;;;;;;5040294;28;20040;-67
2022/01/24 06:22:45;;;;;;;166.43;70.80;;;-1.70;92.60;;;;;;5043394;28;20029;-67
2022/01/24 06:25:13;;;;;;;69.65;35.88;;;-1.70;94.50;;;;;;5044809;28;20059;-66
2022/01/24 06:27:39;;;;;;;42.13;24.60;;;-1.70;93.10;;;;;;5039217;28;20108;-65
2022/01/24 06:30:05;;;;;;;38.25;23.13;;;-1.50;92.80;;;;;;5041317;28;20116;-66
2022/01/24 06:32:31;;;;;;;60.55;30.00;;;-1.30;92.60;;;;;;5042907;28;20366;-66
2022/01/24 06:34:56;;;;;;;26.80;17.55;;;-1.20;93.60;;;;;;5043001;28;20108;-66
2022/01/24 06:37:22;;;;;;;29.60;18.70;;;-1.00;92.90;;;;;;5043001;28;20025;-66
2022/01/24 06:39:48;;;;;;;23.63;15.57;;;-0.90;94.10;;;;;;5041662;28;20029;-66
2022/01/24 06:42:21;;;;;;;26.08;17.13;;;-0.80;94.70;;;;;;5039316;28;20104;-66
2022/01/24 06:44:48;;;;;;;24.17;15.48;;;-0.70;95.30;;;;;;5043159;28;20055;-67
2022/01/24 06:47:13;;;;;;;24.40;15.55;;;-0.70;96.10;;;;;;5045753;28;20091;-68
2022/01/24 06:49:39;;;;;;;22.60;14.63;;;-0.60;96.90;;;;;;5047005;28;20388;-67
2022/01/24 06:52:09;;;;;;;25.30;14.98;;;-0.60;97.70;;;;;;5041023;28;20028;-67
2022/01/24 06:54:36;;;;;;;23.55;15.27;;;-0.60;97.90;;;;;;5049458;28;20111;-68
2022/01/24 06:57:02;;;;;;;23.42;15.18;;;-0.60;98.00;;;;;;5056819;28;20108;-67
2022/01/24 06:59:28;;;;;;;24.85;16.17;;;-0.60;98.00;;;;;;5050496;28;20116;-67
2022/01/24 07:01:54;;;;;;;21.65;15.27;;;-0.60;98.00;;;;;;5051346;28;20408;-68
2022/01/24 07:04:20;;;;;;;21.20;14.68;;;-0.60;98.00;;;;;;5057383;28;20299;-67
2022/01/24 07:06:46;;;;;;;24.05;14.65;;;-0.60;98.00;;;;;;5048289;28;20030;-68
2022/01/24 07:09:13;;;;;;;21.90;14.43;;;-0.60;98.00;;;;;;5037948;28;20440;-67
2022/01/24 07:11:39;;;;;;;23.00;15.32;;;-0.60;98.00;;;;;;5043495;28;20120;-67
2022/01/24 07:14:10;;;;;;;29.75;18.35;;;-0.60;98.00;;;;;;5041725;28;20444;-67
2022/01/24 07:19:20;;;;;;;;;;;-0.60;98.00;;;;;;5048244;28;20068;-69
2022/01/24 07:21:48;;;;;;;23.75;15.10;;;-0.60;98.00;;;;;;5043850;28;19960;-68
2022/01/24 07:24:13;;;;;;;27.00;17.83;;;-0.50;98.00;;;;;;5049311;28;20438;-68
2022/01/24 07:26:42;;;;;;;23.90;16.25;;;-0.60;98.00;;;;;;5037188;28;20029;-67
2022/01/24 07:29:08;;;;;;;25.80;16.52;;;-0.50;98.00;;;;;;5037661;28;20100;-68
2022/01/24 07:31:33;;;;;;;27.92;17.80;;;-0.40;98.00;;;;;;5036566;28;20104;-68
2022/01/24 07:33:59;;;;;;;27.83;16.42;;;-0.40;98.00;;;;;;5052662;28;20032;-68
2022/01/24 07:36:25;;;;;;;21.85;14.18;;;-0.40;98.00;;;;;;5046947;28;20091;-68
2022/01/24 07:38:51;;;;;;;25.42;15.23;;;-0.30;98.00;;;;;;5047411;28;20449;-68
2022/01/24 07:41:23;;;;;;;24.45;16.70;;;-0.30;98.00;;;;;;5046505;28;20037;-68
2022/01/24 07:43:49;;;;;;;22.60;15.50;;;-0.20;98.00;;;;;;5039925;28;20059;-65
2022/01/24 07:46:15;;;;;;;21.85;14.43;;;-0.20;98.00;;;;;;5048487;28;20021;-66
2022/01/24 07:48:41;;;;;;;22.05;14.93;;;-0.20;98.00;;;;;;5035652;28;20033;-66
2022/01/24 07:51:06;;;;;;;22.60;14.82;;;-0.10;98.00;;;;;;5046260;28;20095;-66
2022/01/24 07:53:32;;;;;;;24.42;15.07;;;-0.10;98.00;;;;;;5040037;28;20055;-66
2022/01/24 07:55:58;;;;;;;21.15;13.63;;;-0.10;98.00;;;;;;5046240;28;20028;-68
2022/01/24 07:58:24;;;;;;;25.65;16.42;;;-0.10;98.00;;;;;;5053307;28;20033;-68
2022/01/24 08:00:50;;;;;;;26.38;17.27;;;-0.10;98.00;;;;;;5036164;28;20025;-68
2022/01/24 08:03:16;;;;;;;28.60;18.50;;;-0.10;98.00;;;;;;5050445;28;20433;-68
2022/01/24 08:05:43;;;;;;;26.10;17.08;;;-0.10;98.00;;;;;;5043437;28;20094;-68
2022/01/24 08:08:08;;;;;;;21.63;13.65;;;0.00;98.00;;;;;;5044620;28;20025;-68
2022/01/24 08:10:35;;;;;;;22.23;14.50;;;0.00;98.00;;;;;;5041983;28;20081;-67
2022/01/24 08:13:01;;;;;;;23.10;14.82;;;0.00;98.00;;;;;;5036494;28;20017;-68
2022/01/24 08:15:27;;;;;;;21.42;14.50;;;0.10;98.00;;;;;;5049533;28;20025;-68
2022/01/24 08:17:53;;;;;;;22.90;15.15;;;0.10;98.00;;;;;;5043700;28;20067;-68
2022/01/24 08:20:20;;;;;;;24.30;15.93;;;0.10;98.00;;;;;;5054166;28;20422;-69
2022/01/24 08:22:46;;;;;;;26.92;17.35;;;0.10;98.00;;;;;;5049089;28;20098;-67
2022/01/24 08:25:13;;;;;;;18.58;12.10;;;0.20;98.00;;;;;;5044415;28;20438;-68
2022/01/24 08:27:39;;;;;;;29.08;18.30;;;0.30;98.00;;;;;;5038047;28;20296;-68
2022/01/24 08:30:08;;;;;;;26.52;17.15;;;0.40;98.00;;;;;;5035526;28;20033;-68
2022/01/24 08:32:34;;;;;;;24.65;16.23;;;0.50;98.00;;;;;;5041693;28;20311;-67
2022/01/24 08:35:00;;;;;;;21.92;12.23;;;0.60;98.00;;;;;;5045402;28;20036;-67
2022/01/24 08:37:26;;;;;;;24.40;16.13;;;0.80;98.00;;;;;;5052167;28;20414;-67
2022/01/24 08:39:52;;;;;;;23.17;16.27;;;0.90;98.00;;;;;;5040219;28;20414;-68
2022/01/24 08:47:23;;;;;;;20.60;14.13;;;2.60;98.00;;;;;;5051981;28;20025;-68
2022/01/24 08:49:50;;;;;;;15.38;10.73;;;3.70;98.00;;;;;;5049210;28;20022;-68
2022/01/24 08:52:15;;;;;;;17.20;10.95;;;3.80;96.50;;;;;;5037994;28;20033;-68
2022/01/24 08:54:41;;;;;;;17.60;12.35;;;4.10;96.10;;;;;;5040953;28;20330;-68
2022/01/24 08:57:07;;;;;;;14.45;10.00;;;4.60;93.70;;;;;;5050315;28;20314;-68
2022/01/24 08:59:34;;;;;;;20.30;13.50;;;5.10;94.10;;;;;;5036560;28;20018;-67
2022/01/24 09:02:00;;;;;;;19.13;12.25;;;5.60;90.60;;;;;;5037372;28;20203;-66
2022/01/24 09:04:26;;;;;;;16.15;10.82;;;5.90;91.30;;;;;;5044688;28;20029;-66
2022/01/24 09:06:52;;;;;;;13.60;8.98;;;6.40;89.10;;;;;;5049367;28;20017;-67
2022/01/24 09:09:19;;;;;;;11.25;6.78;;;6.90;87.40;;;;;;5035566;28;20025;-67
2022/01/24 09:11:45;;;;;;;15.70;9.55;;;7.10;84.90;;;;;;5039308;28;20021;-67
2022/01/24 09:14:11;;;;;;;14.20;10.13;;;7.10;83.50;;;;;;5053360;28;20036;-65
2022/01/24 09:16:37;;;;;;;11.10;7.32;;;6.30;84.90;;;;;;5052574;28;20056;-68
2022/01/24 09:19:05;;;;;;;11.80;8.27;;;6.20;86.60;;;;;;5035345;28;20033;-68
2022/01/24 09:21:31;;;;;;;11.73;7.20;;;6.70;85.30;;;;;;5041001;28;20044;-67
2022/01/24 09:23:57;;;;;;;17.70;10.65;;;6.90;85.50;;;;;;5043787;28;20038;-66
2022/01/24 09:26:23;;;;;;;11.15;7.85;;;6.90;83.50;;;;;;5042198;28;20437;-66
2022/01/24 09:28:48;;;;;;;9.88;6.72;;;7.50;82.90;;;;;;5042773;28;20026;-67
2022/01/24 09:31:14;;;;;;;11.95;7.15;;;8.10;82.10;;;;;;5035424;28;20079;-68
2022/01/24 09:33:43;;;;;;;10.40;7.13;;;8.90;79.20;;;;;;5035053;28;20049;-67
2022/01/24 09:36:09;;;;;;;8.85;6.57;;;8.90;78.00;;;;;;5041246;28;20033;-67
2022/01/24 09:38:36;;;;;;;12.70;7.25;;;8.50;78.20;;;;;;5043674;28;20026;-67
2022/01/24 09:41:06;;;;;;;12.85;7.30;;;8.40;79.30;;;;;;5054287;28;20432;-67
2022/01/24 09:43:33;;;;;;;12.27;8.00;;;8.80;78.30;;;;;;5036622;28;20104;-66
2022/01/24 09:45:59;;;;;;;9.93;7.20;;;9.30;77.20;;;;;;5048179;28;20033;-67
2022/01/24 09:48:26;;;;;;;9.82;6.40;;;9.50;75.70;;;;;;5034209;28;20021;-67
2022/01/24 09:50:53;;;;;;;10.60;6.60;;;8.60;77.10;;;;;;5051485;28;20021;-68
2022/01/24 09:53:20;;;;;;;11.77;7.38;;;9.00;77.90;;;;;;5035487;28;20047;-67
2022/01/24 09:55:47;;;;;;;8.32;5.63;;;8.90;76.90;;;;;;5042035;28;20303;-67
2022/01/24 09:58:12;;;;;;;9.77;6.18;;;8.70;77.90;;;;;;5051914;28;20314;-67
2022/01/24 10:00:38;;;;;;;7.70;4.85;;;8.20;78.00;;;;;;5043168;28;20025;-67
2022/01/24 10:03:06;;;;;;;9.88;7.00;;;8.40;79.50;;;;;;5049933;28;20032;-67
2022/01/24 10:05:37;;;;;;;11.63;7.53;;;8.70;78.40;;;;;;5054154;28;20025;-67
2022/01/24 10:08:05;;;;;;;11.60;8.20;;;8.80;77.40;;;;;;5049638;28;20025;-67
2022/01/24 10:10:51;;;;;;;8.65;6.00;;;8.90;77.60;;;;;;5040241;28;20025;-66
2022/01/24 10:16:43;;;;;;;7.93;5.30;;;7.90;79.50;;;;;;5049321;28;20032;-66
2022/01/24 10:19:16;;;;;;;20.90;12.77;;;7.90;80.10;;;;;;5052044;28;20032;-67
2022/01/24 10:21:50;;;;;;;11.23;7.03;;;9.10;77.90;;;;;;5045967;28;20037;-67
2022/01/24 10:24:51;;;;;;;8.80;5.55;;;9.50;75.70;;;;;;5055626;28;20037;-67
2022/01/24 10:27:20;;;;;;;8.50;5.95;;;9.80;74.70;;;;;;5056803;28;20100;-67
2022/01/24 10:29:54;;;;;;;12.48;7.78;;;9.80;75.10;;;;;;5050143;28;20049;-67
2022/01/24 10:32:43;;;;;;;12.43;6.82;;;8.90;76.70;;;;;;5038428;28;20372;-67
2022/01/24 10:35:40;;;;;;;10.85;6.75;;;9.00;77.10;;;;;;5039068;28;20113;-68
2022/01/24 10:38:54;;;;;;;9.90;5.88;;;9.40;76.30;;;;;;5056501;28;20036;-67
2022/01/24 10:41:28;;;;;;;7.88;5.45;;;9.90;75.30;;;;;;5049629;28;20322;-66
2022/01/24 10:43:56;;;;;;;10.48;7.05;;;10.40;73.60;;;;;;5057674;28;20379;-66
2022/01/24 10:46:28;;;;;;;8.98;6.10;;;10.80;72.10;;;;;;5057482;28;20108;-66
2022/01/24 10:49:15;;;;;;;11.75;7.40;;;10.60;73.10;;;;;;5042428;28;20021;-66
2022/01/24 10:51:46;;;;;;;10.27;7.00;;;9.50;73.70;;;;;;5042212;28;20312;-68
2022/01/24 10:54:17;;;;;;;11.98;8.00;;;9.10;76.60;;;;;;5053382;28;20381;-67
2022/01/24 10:56:45;;;;;;;10.82;6.45;;;9.30;77.10;;;;;;5039439;28;20029;-69
2022/01/24 10:59:15;;;;;;;11.25;6.63;;;9.80;75.90;;;;;;5052647;28;20457;-68
2022/01/24 11:01:46;;;;;;;6.80;4.63;;;9.10;75.70;;;;;;5053921;28;20082;-67
2022/01/24 11:04:14;;;;;;;10.75;6.47;;;9.40;76.10;;;;;;5047043;28;20310;-68
2022/01/24 11:06:44;;;;;;;7.18;4.43;;;9.40;76.20;;;;;;5057185;28;20025;-68
2022/01/24 11:09:19;;;;;;;6.53;4.32;;;9.40;75.90;;;;;;5056908;28;20025;-66
2022/01/24 11:11:46;;;;;;;6.03;4.10;;;10.00;75.30;;;;;;5052649;28;20021;-67
2022/01/24 11:14:16;;;;;;;8.90;4.00;;;10.60;73.00;;;;;;5051931;28;20108;-67
2022/01/24 11:16:42;;;;;;;7.05;3.90;;;10.90;72.20;;;;;;5036900;28;20025;-67
2022/01/24 11:19:14;;;;;;;8.20;4.50;;;10.70;72.70;;;;;;5046862;28;20112;-68
2022/01/24 11:21:42;;;;;;;8.57;4.35;;;10.80;72.70;;;;;;5055827;28;20319;-66
2022/01/24 11:24:09;;;;;;;8.32;4.43;;;10.80;72.10;;;;;;5038128;28;20041;-67
2022/01/24 11:26:36;;;;;;;7.07;3.83;;;10.30;72.80;;;;;;5056360;28;20112;-67
2022/01/24 11:29:03;;;;;;;7.00;4.00;;;10.30;74.70;;;;;;5038503;28;20025;-67
2022/01/24 11:31:38;;;;;;;6.35;4.28;;;10.40;74.40;;;;;;5054311;28;20029;-66
2022/01/24 11:34:31;;;;;;;6.90;4.13;;;10.30;73.70;;;;;;5046249;28;20071;-67
2022/01/24 11:36:58;;;;;;;6.97;4.17;;;9.70;75.60;;;;;;5055642;28;20095;-68
2022/01/24 11:39:24;;;;;;;7.90;4.75;;;9.90;76.10;;;;;;5038097;28;20037;-67
2022/01/24 11:41:50;;;;;;;6.43;3.78;;;10.00;75.40;;;;;;5054955;28;20107;-67
2022/01/24 11:44:18;;;;;;;7.70;3.92;;;10.20;75.90;;;;;;5055346;28;20070;-67
2022/01/24 11:46:50;;;;;;;7.85;3.92;;;10.70;74.30;;;;;;5046245;28;20060;-67
2022/01/24 11:49:27;;;;;;;8.68;4.53;;;10.90;72.50;;;;;;5052260;28;20414;-68
2022/01/24 11:52:13;;;;;;;6.00;3.60;;;11.00;72.40;;;;;;5042365;28;20029;-67
2022/01/24 11:57:33;;;;;;;6.00;3.90;;;10.50;72.80;;;;;;5045998;28;20121;-68
2022/01/24 12:00:02;;;;;;;7.68;4.32;;;10.10;74.20;;;;;;5053538;28;20033;-68
2022/01/24 12:02:30;;;;;;;8.25;5.18;;;10.00;74.80;;;;;;5047390;28;20410;-68
2022/01/24 12:05:09;;;;;;;7.28;4.45;;;9.90;75.70;;;;;;5045287;28;20017;-68
2022/01/24 12:07:43;;;;;;;7.88;4.45;;;9.80;75.90;;;;;;5055988;28;20321;-67
2022/01/24 12:10:20;;;;;;;;;;;9.60;75.00;;;;;;5041212;28;20033;-68
2022/01/24 12:12:48;;;;;;;10.52;5.28;;;9.70;76.20;;;;;;5044268;28;19976;-68
2022/01/24 12:15:36;;;;;;;9.20;4.70;;;10.00;75.90;;;;;;5038131;28;20441;-67
2022/01/24 12:18:16;;;;;;;6.78;4.03;;;10.10;75.40;;;;;;5041734;28;20029;-68
2022/01/24 12:20:42;;;;;;;6.88;4.05;;;10.40;75.00;;;;;;5038426;28;20052;-68
2022/01/24 12:23:16;;;;;;;7.20;4.05;;;10.50;74.70;;;;;;5046986;28;20108;-68
2022/01/24 12:25:49;;;;;;;6.97;4.28;;;10.70;73.50;;;;;;5053230;28;20457;-68
2022/01/24 12:28:48;;;;;;;7.25;4.30;;;10.90;73.00;;;;;;5043899;28;20292;-68
2022/01/24 12:31:26;;;;;;;7.47;4.10;;;10.90;72.70;;;;;;5040735;28;20037;-68
2022/01/24 12:33:54;;;;;;;7.20;4.28;;;10.50;74.00;;;;;;5043076;28;20029;-68
2022/01/24 12:36:39;;;;;;;8.05;4.22;;;10.40;73.90;;;;;;5048818;28;20029;-68
2022/01/24 12:39:15;;;;;;;6.88;4.18;;;10.80;72.70;;;;;;5051885;28;20025;-68
2022/01/24 12:41:47;;;;;;;9.10;4.75;;;10.60;73.70;;;;;;5046567;28;20109;-68
2022/01/24 12:47:02;;;;;;;7.53;4.30;;;9.70;76.10;;;;;;5038802;28;20068;-68
2022/01/24 12:49:30;;;;;;;9.38;4.35;;;9.90;75.60;;;;;;5038044;28;20021;-68
2022/01/24 12:52:04;;;;;;;6.07;3.80;;;9.70;75.80;;;;;;5041150;28;20033;-68
2022/01/24 12:54:31;;;;;;;7.75;4.53;;;10.00;76.10;;;;;;5037060;28;20029;-68
2022/01/24 12:56:59;;;;;;;7.53;4.32;;;9.90;74.40;;;;;;5043606;28;20040;-69
2022/01/24 12:59:25;;;;;;;6.82;4.55;;;9.40;76.50;;;;;;5041944;28;20029;-68
2022/01/24 13:01:54;;;;;;;6.85;4.32;;;9.40;77.20;;;;;;5037161;28;20033;-68
2022/01/24 13:04:35;;;;;;;7.10;4.55;;;9.70;76.80;;;;;;5043382;28;20053;-68
2022/01/24 13:07:01;;;;;;;8.07;4.63;;;9.80;75.50;;;;;;5051050;28;20422;-68
2022/01/24 13:09:28;;;;;;;7.00;4.13;;;9.80;76.40;;;;;;5055613;28;20033;-68
2022/01/24 13:12:04;;;;;;;6.05;4.00;;;9.90;76.30;;;;;;5055735;28;20025;-69
2022/01/24 13:14:46;;;;;;;6.70;4.28;;;9.90;75.50;;;;;;5055657;28;20104;-68
2022/01/24 13:25:27;;;;;;;8.40;5.10;;;9.00;76.70;;;;;;5055779;28;20052;-68
2022/01/24 13:28:20;;;;;;;8.77;5.50;;;8.80;78.40;;;;;;5055685;28;20107;-68
2022/01/24 13:30:48;;;;;;;8.98;4.97;;;8.90;77.90;;;;;;5054195;28;20052;-68
2022/01/24 13:33:19;;;;;;;7.57;4.65;;;8.90;77.90;;;;;;5054870;28;20047;-68
2022/01/24 13:35:51;;;;;;;7.05;3.95;;;8.90;78.70;;;;;;5058011;28;20032;-68
2022/01/24 13:38:19;;;;;;;7.53;5.07;;;9.10;78.70;;;;;;5059538;28;20028;-68
2022/01/24 13:41:10;;;;;;;11.57;4.65;;;9.20;78.40;;;;;;5059566;28;20108;-68
2022/01/24 13:43:47;;;;;;;9.07;4.75;;;9.20;78.00;;;;;;5059435;28;20096;-68
2022/01/24 13:46:16;;;;;;;8.60;4.95;;;9.30;77.50;;;;;;5059432;28;20025;-69
2022/01/24 13:48:47;;;;;;;7.47;4.85;;;9.20;78.70;;;;;;5058267;28;20013;-68
2022/01/24 13:51:21;;;;;;;8.35;4.72;;;9.10;77.60;;;;;;5041710;28;20483;-69
2022/01/24 13:53:56;;;;;;;;;;;8.80;78.30;;;;;;5059761;28;20087;-69
2022/01/24 13:56:26;;;;;;;10.88;4.82;;;8.80;79.20;;;;;;5059303;28;19975;-69
2022/01/24 13:59:16;;;;;;;7.85;4.78;;;8.60;79.30;;;;;;5059395;28;20025;-70
2022/01/24 14:02:01;;;;;;;9.02;4.85;;;8.50;80.50;;;;;;5057998;28;20033;-68
2022/01/24 14:04:43;;;;;;;11.63;4.70;;;8.50;80.60;;;;;;5058205;28;20314;-69
2022/01/24 14:07:10;;;;;;;8.57;5.03;;;8.40;79.80;;;;;;5056528;28;20112;-69
2022/01/24 14:09:46;;;;;;;10.50;4.90;;;8.50;80.20;;;;;;5059264;28;20021;-69
2022/01/24 14:12:18;;;;;;;8.95;4.93;;;8.40;79.60;;;;;;5058989;28;20064;-69
2022/01/24 14:14:53;;;;;;;8.63;4.88;;;8.00;80.20;;;;;;5057119;28;20124;-68
2022/01/24 14:17:36;;;;;;;7.90;4.95;;;7.80;82.00;;;;;;5041603;28;20034;-69
2022/01/24 14:20:14;;;;;;;10.05;5.53;;;7.80;82.20;;;;;;5052163;28;20144;-68
2022/01/24 14:22:51;;;;;;;9.98;5.28;;;7.60;82.00;;;;;;5058603;28;20025;-68
2022/01/24 14:25:16;;;;;;;9.88;4.88;;;7.50;83.40;;;;;;5053908;28;20037;-69
2022/01/24 14:27:51;;;;;;;8.52;4.72;;;7.50;83.80;;;;;;5038823;28;20048;-68
2022/01/24 14:30:26;;;;;;;8.35;5.10;;;7.40;82.60;;;;;;5041613;28;20067;-68
2022/01/24 14:33:01;;;;;;;8.18;4.80;;;7.20;82.80;;;;;;5038978;28;20067;-69
2022/01/24 14:35:28;;;;;;;7.45;4.55;;;7.10;83.60;;;;;;5046765;28;20047;-69
2022/01/24 14:37:55;;;;;;;7.82;5.22;;;7.30;84.20;;;;;;5040349;28;20179;-68
2022/01/24 14:46:01;;;;;;;49.97;22.33;;;7.50;83.20;;;;;;5058311;28;20365;-69
2022/01/24 14:48:30;;;;;;;11.60;6.90;;;7.50;84.10;;;;;;5051949;28;20021;-69
2022/01/24 14:50:56;;;;;;;46.83;21.48;;;7.60;82.90;;;;;;5056589;28;20044;-69
2022/01/24 14:53:28;;;;;;;54.00;30.13;;;7.80;83.40;;;;;;5051707;28;20415;-69
2022/01/24 14:55:53;;;;;;;10.10;6.38;;;7.90;83.10;;;;;;5038221;28;20029;-68
2022/01/24 14:58:19;;;;;;;7.55;4.68;;;7.90;83.00;;;;;;5041668;28;20036;-69
2022/01/24 15:00:45;;;;;;;8.32;4.88;;;7.90;82.70;;;;;;5057884;28;20099;-69
2022/01/24 15:03:10;;;;;;;6.90;4.18;;;7.80;82.70;;;;;;5054842;28;20025;-69
2022/01/24 15:05:36;;;;;;;6.80;4.15;;;7.80;83.20;;;;;;5055696;28;20037;-69